createdAt,value
2022-09-12T00:00:06.928Z,60.73
2022-09-12T00:03:17.929Z,60.90
2022-09-12T00:06:09.655Z,60.84
2022-09-12T00:08:57.806Z,61.09
2022-09-12T00:11:46.497Z,61.32
2022-09-12T00:14:32.411Z,61.32
2022-09-12T00:17:53.412Z,62.09
2022-09-12T00:20:47.209Z,61.60
2022-09-12T00:23:33.516Z,61.59
2022-09-12T00:26:20.584Z,61.19
2022-09-12T00:30:11.716Z,61.58
2022-09-12T00:32:57.582Z,61.31
2022-09-12T00:35:54.961Z,61.55
2022-09-12T00:38:51.192Z,61.65
2022-09-12T00:41:59.099Z,61.70
2022-09-12T00:44:48.248Z,61.71
2022-09-12T00:47:36.349Z,61.71
2022-09-12T00:50:26.789Z,61.70
2022-09-12T00:53:12.647Z,61.66
2022-09-12T00:55:58.970Z,61.96
2022-09-12T00:59:00.909Z,61.84
2022-09-12T01:01:49.024Z,62.15
2022-09-12T01:04:37.547Z,62.19
2022-09-12T01:07:24.069Z,62.19
2022-09-12T01:10:10.844Z,62.65
2022-09-12T01:12:57.547Z,62.34
2022-09-12T01:15:43.305Z,62.28
2022-09-12T01:19:12.747Z,62.62
2022-09-12T01:22:48.318Z,62.53
2022-09-12T01:26:18.404Z,62.81
2022-09-12T01:29:34.201Z,62.54
2022-09-12T01:32:43.089Z,62.68
2022-09-12T01:36:08.813Z,62.20
2022-09-12T01:39:34.429Z,62.24
2022-09-12T01:43:12.593Z,62.08
2022-09-12T01:47:11.182Z,62.51
2022-09-12T01:50:07.558Z,62.21
2022-09-12T01:52:58.889Z,62.14
2022-09-12T01:56:06.580Z,61.93
2022-09-12T01:59:06.911Z,62.08
2022-09-12T02:02:06.275Z,62.20
2022-09-12T02:05:17.216Z,62.06
2022-09-12T02:08:06.155Z,61.91
2022-09-12T02:11:02.146Z,61.77
2022-09-12T02:14:07.225Z,61.88
2022-09-12T02:16:57.205Z,62.36
2022-09-12T02:20:08.374Z,62.49
2022-09-12T02:22:56.259Z,62.34
2022-09-12T02:25:43.580Z,62.22
2022-09-12T02:28:33.073Z,61.98
2022-09-12T02:31:36.044Z,62.62
2022-09-12T02:34:35.211Z,62.38
2022-09-12T02:37:25.992Z,62.37
2022-09-12T02:40:12.776Z,62.33
2022-09-12T02:42:58.952Z,62.46
2022-09-12T02:45:45.171Z,62.84
2022-09-12T02:48:34.729Z,62.92
2022-09-12T02:51:23.659Z,62.79
2022-09-12T02:54:10.446Z,63.26
2022-09-12T02:56:56.628Z,63.02
2022-09-12T02:59:42.764Z,63.17
2022-09-12T03:03:03.019Z,63.22
2022-09-12T03:06:03.004Z,63.14
2022-09-12T03:09:27.157Z,63.15
2022-09-12T03:12:24.234Z,63.26
2022-09-12T03:15:19.544Z,63.14
2022-09-12T03:18:31.903Z,62.84
2022-09-12T03:21:42.610Z,63.08
2022-09-12T03:24:38.077Z,62.95
2022-09-12T03:27:36.838Z,62.92
2022-09-12T03:30:22.883Z,63.10
2022-09-12T03:33:13.700Z,63.15
2022-09-12T03:35:59.818Z,63.40
2022-09-12T03:38:45.935Z,63.36
2022-09-12T03:41:31.810Z,63.20
2022-09-12T03:44:18.293Z,62.85
2022-09-12T03:47:06.965Z,62.77
2022-09-12T03:49:56.741Z,62.87
2022-09-12T03:52:42.680Z,63.16
2022-09-12T03:55:28.466Z,63.07
2022-09-12T03:58:14.320Z,63.05
2022-09-12T04:01:00.048Z,63.10
2022-09-12T04:03:48.196Z,62.80
2022-09-12T04:06:33.894Z,62.91
2022-09-12T04:09:19.643Z,63.10
2022-09-12T04:12:05.916Z,63.15
2022-09-12T04:14:51.462Z,62.85
2022-09-12T04:17:37.282Z,62.83
2022-09-12T04:20:23.232Z,63.14
2022-09-12T04:23:09.296Z,62.99
2022-09-12T04:25:56.354Z,62.79
2022-09-12T04:28:43.323Z,63.11
2022-09-12T04:31:30.923Z,63.10
2022-09-12T04:34:16.845Z,62.84
2022-09-12T04:37:14.012Z,63.23
2022-09-12T04:40:03.744Z,63.38
2022-09-12T04:42:49.726Z,63.12
2022-09-12T04:45:39.167Z,63.63
2022-09-12T04:48:25.506Z,63.58
2022-09-12T04:51:18.161Z,63.23
2022-09-12T04:54:07.870Z,63.45
2022-09-12T04:56:55.360Z,63.16
2022-09-12T04:59:41.333Z,63.32
2022-09-12T05:02:30.117Z,62.88
2022-09-12T05:05:17.569Z,63.01
2022-09-12T05:08:03.701Z,63.12
2022-09-12T05:10:49.552Z,63.17
2022-09-12T05:13:35.509Z,63.39
2022-09-12T05:16:22.034Z,63.17
2022-09-12T05:19:09.712Z,63.40
2022-09-12T05:21:56.302Z,63.16
2022-09-12T05:24:47.245Z,63.03
2022-09-12T05:27:36.029Z,63.08
2022-09-12T05:30:21.622Z,62.96
2022-09-12T05:33:07.205Z,63.19
2022-09-12T05:35:53.145Z,63.36
2022-09-12T05:38:39.408Z,63.10
2022-09-12T05:41:29.542Z,63.47
2022-09-12T05:44:15.581Z,63.17
2022-09-12T05:47:01.526Z,63.11
2022-09-12T05:49:49.127Z,63.08
2022-09-12T05:52:35.239Z,62.97
2022-09-12T05:55:21.296Z,63.00
2022-09-12T05:58:07.480Z,63.04
2022-09-12T06:00:53.295Z,63.10
2022-09-12T06:03:50.514Z,62.67
2022-09-12T06:06:41.876Z,62.75
2022-09-12T06:09:28.186Z,62.36
2022-09-12T06:12:14.219Z,62.60
2022-09-12T06:15:00.192Z,62.35
2022-09-12T06:17:50.786Z,62.46
2022-09-12T06:20:37.062Z,62.38
2022-09-12T06:23:23.189Z,62.11
2022-09-12T06:26:10.612Z,62.34
2022-09-12T06:28:58.442Z,62.26
2022-09-12T06:31:44.463Z,61.94
2022-09-12T06:34:31.537Z,62.09
2022-09-12T06:37:17.610Z,61.82
2022-09-12T06:40:03.568Z,61.65
2022-09-12T06:42:49.666Z,61.71
2022-09-12T06:45:51.232Z,61.58
2022-09-12T06:48:41.578Z,61.43
2022-09-12T06:51:29.120Z,61.35
2022-09-12T06:54:17.255Z,61.24
2022-09-12T06:57:03.526Z,60.92
2022-09-12T06:59:49.327Z,60.73
2022-09-12T07:02:34.943Z,60.54
2022-09-12T07:05:20.615Z,60.22
2022-09-12T07:08:06.374Z,60.13
2022-09-12T07:10:52.120Z,59.96
2022-09-12T07:13:39.514Z,59.93
2022-09-12T07:16:25.780Z,59.96
2022-09-12T07:19:12.201Z,59.77
2022-09-12T07:21:58.808Z,59.99
2022-09-12T07:24:45.877Z,60.00
2022-09-12T07:27:31.450Z,59.77
2022-09-12T07:30:17.834Z,59.73
2022-09-12T07:33:03.878Z,59.64
2022-09-12T07:35:49.883Z,59.47
2022-09-12T07:38:35.906Z,59.49
2022-09-12T07:41:29.576Z,59.36
2022-09-12T07:44:15.521Z,59.39
2022-09-12T07:47:02.027Z,59.28
2022-09-12T07:49:48.629Z,59.33
2022-09-12T07:52:34.434Z,59.27
2022-09-12T07:55:20.338Z,59.03
2022-09-12T07:58:06.489Z,59.29
2022-09-12T08:00:52.405Z,59.12
2022-09-12T08:03:39.198Z,59.04
2022-09-12T08:06:26.758Z,59.13
2022-09-12T08:09:13.052Z,58.92
2022-09-12T08:11:59.013Z,58.69
2022-09-12T08:14:44.811Z,58.63
2022-09-12T08:17:30.585Z,58.43
2022-09-12T08:20:18.079Z,58.26
2022-09-12T08:23:03.870Z,57.92
2022-09-12T08:25:50.202Z,58.07
2022-09-12T08:28:36.726Z,57.67
2022-09-12T08:31:24.646Z,57.73
2022-09-12T08:34:10.754Z,57.57
2022-09-12T08:36:56.728Z,57.48
2022-09-12T08:39:42.480Z,57.39
2022-09-12T08:43:14.647Z,56.82
2022-09-12T08:46:40.074Z,56.45
2022-09-12T08:49:31.110Z,56.26
2022-09-12T08:52:24.281Z,56.10
2022-09-12T08:55:22.406Z,56.03
2022-09-12T08:58:22.737Z,55.92
2022-09-12T09:01:11.890Z,55.87
2022-09-12T09:04:34.484Z,55.80
2022-09-12T09:07:38.694Z,55.69
2022-09-12T09:10:27.336Z,55.45
2022-09-12T09:13:44.207Z,55.38
2022-09-12T09:16:31.537Z,55.14
2022-09-12T09:19:25.742Z,54.65
2022-09-12T09:22:33.844Z,54.57
2022-09-12T09:25:23.943Z,54.39
2022-09-12T09:28:37.820Z,54.36
2022-09-12T09:31:25.917Z,54.51
2022-09-12T09:34:34.307Z,53.96
2022-09-12T09:37:36.538Z,53.95
2022-09-12T09:40:58.293Z,53.98
2022-09-12T09:43:44.164Z,53.82
2022-09-12T09:46:30.426Z,53.41
2022-09-12T09:49:17.765Z,53.07
2022-09-12T09:52:06.593Z,52.99
2022-09-12T09:54:57.490Z,52.87
2022-09-12T09:57:46.642Z,52.56
2022-09-12T10:00:37.177Z,52.21
2022-09-12T10:03:29.025Z,51.81
2022-09-12T10:06:20.979Z,50.47
2022-09-12T10:09:18.840Z,51.70
2022-09-12T10:12:30.618Z,51.26
2022-09-12T10:15:21.035Z,51.02
2022-09-12T10:18:07.256Z,51.01
2022-09-12T10:20:53.463Z,50.42
2022-09-12T10:23:41.260Z,49.92
2022-09-12T10:26:33.062Z,49.60
2022-09-12T10:29:31.688Z,49.10
2022-09-12T10:32:31.298Z,49.37
2022-09-12T10:35:21.515Z,48.77
2022-09-12T10:38:22.630Z,48.38
2022-09-12T10:41:10.414Z,47.86
2022-09-12T10:44:07.683Z,46.99
2022-09-12T10:46:54.595Z,47.28
2022-09-12T10:49:41.419Z,46.98
2022-09-12T10:52:28.560Z,46.85
2022-09-12T10:55:15.805Z,46.36
2022-09-12T10:58:14.589Z,46.04
2022-09-12T11:01:25.576Z,45.56
2022-09-12T11:04:14.182Z,44.73
2022-09-12T11:07:15.147Z,43.36
2022-09-12T11:10:03.916Z,42.10
2022-09-12T11:13:14.773Z,40.34
2022-09-12T11:16:14.309Z,39.50
2022-09-12T11:19:41.667Z,37.26
2022-09-12T11:22:43.754Z,35.95
2022-09-12T11:25:43.417Z,33.92
2022-09-12T11:28:48.040Z,34.79
2022-09-12T11:31:40.154Z,34.30
2022-09-12T11:34:33.455Z,33.87
2022-09-12T11:37:43.907Z,33.45
2022-09-12T11:40:40.895Z,34.13
2022-09-12T11:43:35.489Z,34.72
2022-09-12T11:46:22.961Z,35.96
2022-09-12T11:49:15.712Z,36.92
2022-09-12T11:52:11.350Z,37.28
2022-09-12T11:55:18.907Z,35.83
2022-09-12T11:58:05.279Z,36.31
2022-09-12T12:00:55.176Z,34.27
2022-09-12T12:03:46.805Z,33.87
2022-09-12T12:06:41.068Z,32.75
2022-09-12T12:09:27.059Z,31.21
2022-09-12T12:12:17.706Z,30.29
2022-09-12T12:15:03.929Z,30.13
2022-09-12T12:18:04.684Z,28.83
2022-09-12T12:20:51.410Z,30.92
2022-09-12T12:23:37.649Z,31.36
2022-09-12T12:26:47.489Z,30.53
2022-09-12T12:29:44.634Z,32.10
2022-09-12T12:32:30.626Z,32.61
2022-09-12T12:35:54.191Z,33.10
2022-09-12T12:38:44.512Z,34.36
2022-09-12T12:41:36.763Z,33.99
2022-09-12T12:44:44.328Z,31.83
2022-09-12T12:47:36.117Z,31.96
2022-09-12T12:50:27.289Z,30.75
2022-09-12T12:53:17.609Z,30.06
2022-09-12T12:56:03.643Z,30.46
2022-09-12T12:58:49.391Z,30.88
2022-09-12T13:01:41.363Z,31.17
2022-09-12T13:04:29.708Z,31.50
2022-09-12T13:07:26.106Z,31.26
2022-09-12T13:10:23.585Z,31.60
2022-09-12T13:13:09.850Z,31.92
2022-09-12T13:15:55.683Z,30.71
2022-09-12T13:18:54.551Z,30.33
2022-09-12T13:22:03.394Z,30.51
2022-09-12T13:24:52.186Z,30.69
2022-09-12T13:27:38.362Z,31.19
2022-09-12T13:30:24.297Z,31.63
2022-09-12T13:33:16.801Z,31.61
2022-09-12T13:36:15.609Z,31.00
2022-09-12T13:39:21.451Z,32.20
2022-09-12T13:42:22.564Z,31.36
2022-09-12T13:45:27.570Z,31.23
2022-09-12T13:48:24.327Z,31.55
2022-09-12T13:51:21.977Z,30.96
2022-09-12T13:54:07.876Z,30.99
2022-09-12T13:56:53.928Z,30.31
2022-09-12T13:59:41.046Z,30.26
2022-09-12T14:02:29.186Z,29.83
2022-09-12T14:05:24.255Z,29.53
2022-09-12T14:08:12.068Z,29.66
2022-09-12T14:10:58.391Z,29.71
2022-09-12T14:13:44.220Z,29.60
2022-09-12T14:16:31.380Z,30.13
2022-09-12T14:19:18.610Z,29.92
2022-09-12T14:22:04.610Z,29.44
2022-09-12T14:24:51.661Z,29.33
2022-09-12T14:27:48.042Z,29.33
2022-09-12T14:30:37.599Z,29.73
2022-09-12T14:33:23.694Z,29.98
2022-09-12T14:36:12.695Z,29.87
2022-09-12T14:39:06.491Z,29.08
2022-09-12T14:42:02.144Z,28.43
2022-09-12T14:45:00.477Z,28.60
2022-09-12T14:47:49.972Z,28.91
2022-09-12T14:50:36.237Z,29.50
2022-09-12T14:53:32.593Z,29.77
2022-09-12T14:56:22.303Z,30.33
2022-09-12T14:59:26.888Z,30.47
2022-09-12T15:02:21.954Z,31.31
2022-09-12T15:05:07.776Z,31.81
2022-09-12T15:08:01.065Z,31.75
2022-09-12T15:10:47.135Z,32.17
2022-09-12T15:13:39.815Z,32.34
2022-09-12T15:16:26.050Z,32.75
2022-09-12T15:19:12.194Z,32.72
2022-09-12T15:21:58.101Z,33.11
2022-09-12T15:24:44.956Z,33.27
2022-09-12T15:27:31.179Z,33.49
2022-09-12T15:30:17.189Z,33.57
2022-09-12T15:33:03.207Z,33.76
2022-09-12T15:35:49.021Z,33.91
2022-09-12T15:38:34.988Z,34.05
2022-09-12T15:41:23.574Z,34.14
2022-09-12T15:44:13.319Z,34.20
2022-09-12T15:46:59.298Z,34.19
2022-09-12T15:49:46.259Z,34.36
2022-09-12T15:52:32.144Z,34.59
2022-09-12T15:55:19.831Z,34.67
2022-09-12T15:58:07.324Z,34.97
2022-09-12T16:00:53.637Z,35.06
2022-09-12T16:03:39.755Z,35.22
2022-09-12T16:06:25.804Z,35.38
2022-09-12T16:09:16.567Z,35.48
2022-09-12T16:12:02.851Z,35.63
2022-09-12T16:14:48.773Z,35.86
2022-09-12T16:17:34.866Z,36.02
2022-09-12T16:20:22.220Z,35.98
2022-09-12T16:23:13.352Z,36.23
2022-09-12T16:26:05.026Z,36.48
2022-09-12T16:28:58.405Z,36.41
2022-09-12T16:31:45.459Z,36.65
2022-09-12T16:34:31.441Z,36.82
2022-09-12T16:37:18.127Z,36.88
2022-09-12T16:40:05.393Z,36.72
2022-09-12T16:42:51.168Z,37.14
2022-09-12T16:45:37.004Z,37.05
2022-09-12T16:48:22.746Z,37.26
2022-09-12T16:51:08.518Z,37.42
2022-09-12T16:53:55.515Z,37.35
2022-09-12T16:56:42.517Z,37.51
2022-09-12T16:59:28.298Z,37.59
2022-09-12T17:02:14.179Z,37.70
2022-09-12T17:05:00.243Z,37.87
2022-09-12T17:07:46.175Z,37.89
2022-09-12T17:10:32.763Z,38.21
2022-09-12T17:13:18.641Z,38.01
2022-09-12T17:16:11.697Z,38.42
2022-09-12T17:18:58.712Z,38.55
2022-09-12T17:21:47.133Z,38.75
2022-09-12T17:24:33.173Z,38.75
2022-09-12T17:27:19.323Z,38.77
2022-09-12T17:30:05.756Z,38.85
2022-09-12T17:32:52.433Z,38.82
2022-09-12T17:35:38.945Z,39.20
2022-09-12T17:38:25.411Z,39.27
2022-09-12T17:41:17.847Z,39.24
2022-09-12T17:44:07.394Z,39.47
2022-09-12T17:46:53.191Z,39.55
2022-09-12T17:49:40.660Z,39.52
2022-09-12T17:52:27.622Z,39.88
2022-09-12T17:55:15.208Z,39.91
2022-09-12T17:58:01.050Z,40.15
2022-09-12T18:01:05.824Z,40.57
2022-09-12T18:03:56.744Z,40.57
2022-09-12T18:06:48.160Z,40.72
2022-09-12T18:09:34.445Z,40.84
2022-09-12T18:12:20.483Z,40.91
2022-09-12T18:15:07.168Z,40.92
2022-09-12T18:17:53.884Z,41.04
2022-09-12T18:20:40.105Z,41.00
2022-09-12T18:23:27.040Z,41.34
2022-09-12T18:26:13.570Z,41.29
2022-09-12T18:28:59.713Z,41.64
2022-09-12T18:31:49.618Z,41.54
2022-09-12T18:34:35.777Z,41.79
2022-09-12T18:37:22.076Z,41.90
2022-09-12T18:40:09.263Z,42.03
2022-09-12T18:42:55.525Z,42.01
2022-09-12T18:45:41.293Z,41.95
2022-09-12T18:48:27.387Z,42.27
2022-09-12T18:51:17.973Z,42.25
2022-09-12T18:54:06.666Z,42.35
2022-09-12T18:56:52.742Z,42.58
2022-09-12T18:59:38.749Z,42.77
2022-09-12T19:02:28.111Z,42.73
2022-09-12T19:05:13.946Z,42.82
2022-09-12T19:08:00.047Z,43.07
2022-09-12T19:10:45.973Z,43.13
2022-09-12T19:13:32.205Z,43.32
2022-09-12T19:16:20.657Z,43.73
2022-09-12T19:19:06.808Z,43.56
2022-09-12T19:21:52.802Z,43.64
2022-09-12T19:24:38.841Z,43.88
2022-09-12T19:27:24.621Z,43.91
2022-09-12T19:30:11.005Z,44.14
2022-09-12T19:32:57.232Z,44.30
2022-09-12T19:35:43.257Z,44.40
2022-09-12T19:38:29.336Z,44.36
2022-09-12T19:41:15.399Z,44.52
2022-09-12T19:44:01.551Z,44.63
2022-09-12T19:46:47.911Z,44.55
2022-09-12T19:49:34.014Z,44.69
2022-09-12T19:52:19.896Z,44.80
2022-09-12T19:55:06.422Z,44.96
2022-09-12T19:57:52.688Z,45.11
2022-09-12T20:00:38.923Z,44.94
2022-09-12T20:03:25.087Z,45.03
2022-09-12T20:06:17.356Z,44.93
2022-09-12T20:09:03.527Z,45.01
2022-09-12T20:11:49.830Z,45.22
2022-09-12T20:14:35.949Z,45.30
2022-09-12T20:17:22.193Z,45.50
2022-09-12T20:20:11.357Z,45.42
2022-09-12T20:22:57.531Z,45.40
2022-09-12T20:25:43.424Z,45.50
2022-09-12T20:28:29.590Z,45.73
2022-09-12T20:31:16.626Z,45.77
2022-09-12T20:34:03.459Z,45.98
2022-09-12T20:36:49.496Z,46.06
2022-09-12T20:39:35.691Z,46.32
2022-09-12T20:42:21.685Z,46.00
2022-09-12T20:45:07.790Z,46.18
2022-09-12T20:47:53.659Z,46.08
2022-09-12T20:50:39.566Z,46.13
2022-09-12T20:53:25.613Z,46.23
2022-09-12T20:56:12.663Z,46.30
2022-09-12T20:58:59.382Z,46.22
2022-09-12T21:01:45.424Z,46.22
2022-09-12T21:04:31.574Z,46.34
2022-09-12T21:07:17.499Z,46.38
2022-09-12T21:10:03.885Z,46.36
2022-09-12T21:12:49.796Z,46.27
2022-09-12T21:15:37.134Z,46.38
2022-09-12T21:18:23.752Z,46.55
2022-09-12T21:21:14.204Z,46.58
2022-09-12T21:24:02.761Z,46.54
2022-09-12T21:26:51.096Z,46.54
2022-09-12T21:29:37.134Z,46.27
2022-09-12T21:32:23.152Z,46.51
2022-09-12T21:35:09.292Z,46.98
2022-09-12T21:37:55.427Z,46.86
2022-09-12T21:40:45.360Z,46.95
2022-09-12T21:43:31.164Z,47.05
2022-09-12T21:46:16.964Z,46.90
2022-09-12T21:49:03.355Z,47.07
2022-09-12T21:51:51.009Z,47.10
2022-09-12T21:54:37.048Z,47.11
2022-09-12T21:57:22.863Z,46.99
2022-09-12T22:00:14.122Z,47.23
2022-09-12T22:03:00.181Z,47.10
2022-09-12T22:05:51.346Z,47.19
2022-09-12T22:08:38.841Z,47.33
2022-09-12T22:11:24.644Z,47.12
2022-09-12T22:14:11.185Z,47.18
2022-09-12T22:16:57.323Z,47.34
2022-09-12T22:19:43.067Z,47.29
2022-09-12T22:22:47.474Z,47.46
2022-09-12T22:25:33.654Z,47.42
2022-09-12T22:28:19.772Z,47.42
2022-09-12T22:31:06.977Z,47.54
2022-09-12T22:33:57.262Z,47.57
2022-09-12T22:36:43.210Z,47.53
2022-09-12T22:39:29.123Z,47.62
2022-09-12T22:42:15.367Z,47.64
2022-09-12T22:45:01.883Z,47.63
2022-09-12T22:47:48.069Z,47.55
2022-09-12T22:50:34.284Z,47.72
2022-09-12T22:53:20.167Z,47.67
2022-09-12T22:56:07.098Z,47.68
2022-09-12T22:58:53.146Z,47.54
2022-09-12T23:01:38.859Z,48.04
2022-09-12T23:04:24.695Z,47.78
2022-09-12T23:07:11.112Z,47.80
2022-09-12T23:09:57.004Z,47.79
2022-09-12T23:12:42.778Z,47.75
2022-09-12T23:15:28.538Z,47.79
2022-09-12T23:18:14.262Z,47.93
2022-09-12T23:21:04.500Z,47.83
2022-09-12T23:23:50.832Z,47.69
2022-09-12T23:26:37.023Z,47.94
2022-09-12T23:29:22.787Z,47.97
2022-09-12T23:32:08.732Z,47.85
2022-09-12T23:34:54.665Z,47.95
2022-09-12T23:37:40.433Z,48.06
2022-09-12T23:40:26.345Z,48.14
2022-09-12T23:43:12.370Z,48.17
2022-09-12T23:45:59.108Z,48.22
2022-09-12T23:48:45.235Z,48.36
2022-09-12T23:51:31.460Z,48.27
2022-09-12T23:54:17.201Z,48.27
2022-09-12T23:57:02.985Z,48.32
2022-09-12T23:59:48.726Z,48.21
